createdAt,value
2022-10-14T00:02:38.094Z,16.50
2022-10-14T00:05:20.975Z,16.60
2022-10-14T00:08:15.968Z,16.40
2022-10-14T00:11:04.105Z,16.30
2022-10-14T00:13:53.025Z,16.30
2022-10-14T00:16:42.132Z,16.40
2022-10-14T00:19:29.977Z,16.50
2022-10-14T00:22:13.880Z,16.60
2022-10-14T00:25:01.967Z,16.50
2022-10-14T00:27:45.245Z,16.40
2022-10-14T00:30:33.043Z,16.60
2022-10-14T00:33:14.142Z,16.60
2022-10-14T00:36:03.056Z,16.70
2022-10-14T00:38:46.335Z,16.60
2022-10-14T00:41:35.074Z,16.50
2022-10-14T00:44:31.183Z,16.60
2022-10-14T00:47:25.946Z,16.60
2022-10-14T00:50:08.768Z,16.70
2022-10-14T00:52:56.960Z,16.70
2022-10-14T00:55:47.046Z,16.80
2022-10-14T00:58:31.711Z,16.70
2022-10-14T01:01:19.050Z,16.50
2022-10-14T01:04:00.159Z,16.40
2022-10-14T01:06:58.143Z,16.60
2022-10-14T01:09:55.057Z,16.80
2022-10-14T01:12:56.976Z,16.80
2022-10-14T01:15:52.127Z,16.70
2022-10-14T01:18:51.043Z,16.80
2022-10-14T01:21:42.197Z,16.80
2022-10-14T01:24:30.976Z,16.90
2022-10-14T01:27:26.088Z,16.70
2022-10-14T01:30:14.075Z,16.80
2022-10-14T01:33:13.173Z,16.70
2022-10-14T01:36:00.094Z,16.80
2022-10-14T01:38:51.267Z,16.80
2022-10-14T01:41:41.990Z,16.80
2022-10-14T01:44:25.059Z,16.80
2022-10-14T01:47:17.027Z,16.90
2022-10-14T01:50:07.217Z,16.90
2022-10-14T01:52:58.986Z,16.80
2022-10-14T01:55:44.143Z,16.70
2022-10-14T01:58:33.987Z,16.70
2022-10-14T02:01:22.164Z,16.90
2022-10-14T02:04:11.999Z,16.80
2022-10-14T02:07:03.156Z,16.60
2022-10-14T02:10:03.010Z,16.90
2022-10-14T02:12:55.206Z,16.90
2022-10-14T02:15:39.040Z,16.60
2022-10-14T02:18:30.212Z,16.60
2022-10-14T02:21:17.991Z,16.40
2022-10-14T02:24:10.127Z,16.40
2022-10-14T02:27:00.104Z,16.50
2022-10-14T02:29:49.126Z,16.60
2022-10-14T02:32:39.018Z,16.50
2022-10-14T02:35:28.123Z,16.40
2022-10-14T02:38:21.021Z,16.60
2022-10-14T02:41:11.277Z,16.40
2022-10-14T02:43:59.046Z,16.30
2022-10-14T02:46:47.294Z,16.40
2022-10-14T02:49:28.035Z,16.60
2022-10-14T02:52:16.247Z,16.50
2022-10-14T02:54:59.064Z,16.70
2022-10-14T02:57:47.228Z,16.50
2022-10-14T03:00:29.041Z,16.40
2022-10-14T03:03:17.226Z,16.50
2022-10-14T03:05:58.041Z,16.40
2022-10-14T03:08:55.094Z,16.30
2022-10-14T03:11:53.101Z,16.20
2022-10-14T03:14:41.254Z,16.30
2022-10-14T03:17:31.017Z,16.40
2022-10-14T03:20:14.374Z,16.60
2022-10-14T03:23:06.064Z,16.50
2022-10-14T03:25:55.281Z,16.40
2022-10-14T03:28:50.077Z,16.40
2022-10-14T03:31:46.197Z,16.60
2022-10-14T03:34:40.030Z,16.40
2022-10-14T03:37:33.241Z,16.40
2022-10-14T03:40:16.047Z,16.30
2022-10-14T03:43:05.232Z,16.40
2022-10-14T03:45:57.035Z,16.50
2022-10-14T03:48:46.287Z,16.40
2022-10-14T03:51:28.037Z,16.20
2022-10-14T03:54:35.268Z,16.30
2022-10-14T03:57:25.103Z,16.10
2022-10-14T04:00:15.185Z,16.20
2022-10-14T04:03:15.110Z,16.10
2022-10-14T04:06:03.270Z,16.00
2022-10-14T04:08:51.047Z,15.90
2022-10-14T04:11:44.682Z,16.00
2022-10-14T04:14:44.041Z,16.00
2022-10-14T04:17:32.172Z,16.00
2022-10-14T04:20:20.117Z,16.20
2022-10-14T04:23:09.266Z,16.20
2022-10-14T04:25:54.054Z,16.20
2022-10-14T04:28:42.196Z,16.30
2022-10-14T04:31:38.066Z,16.20
2022-10-14T04:34:20.440Z,16.10
2022-10-14T04:37:16.072Z,16.10
2022-10-14T04:40:06.886Z,16.20
2022-10-14T04:42:59.057Z,16.20
2022-10-14T04:45:45.533Z,16.10
2022-10-14T04:48:39.054Z,16.40
2022-10-14T04:51:20.489Z,16.30
2022-10-14T04:54:28.052Z,16.40
2022-10-14T04:57:17.231Z,16.30
2022-10-14T04:59:58.135Z,16.30
2022-10-14T05:03:06.242Z,16.40
2022-10-14T05:05:48.062Z,16.40
2022-10-14T05:08:44.245Z,16.60
2022-10-14T05:11:33.316Z,16.50
2022-10-14T05:14:22.079Z,16.60
2022-10-14T05:17:21.319Z,16.40
2022-10-14T05:20:03.060Z,16.40
2022-10-14T05:22:52.310Z,16.20
2022-10-14T05:25:34.088Z,16.20
2022-10-14T05:28:23.284Z,16.20
2022-10-14T05:31:05.077Z,16.10
2022-10-14T05:34:06.214Z,16.00
2022-10-14T05:36:55.079Z,16.00
2022-10-14T05:39:42.550Z,15.90
2022-10-14T05:42:34.126Z,16.10
2022-10-14T05:45:23.223Z,16.20
2022-10-14T05:48:11.084Z,16.10
2022-10-14T05:51:02.206Z,16.00
2022-10-14T05:53:52.084Z,16.00
2022-10-14T05:56:40.390Z,16.10
2022-10-14T05:59:23.096Z,16.10
2022-10-14T06:02:13.292Z,16.10
2022-10-14T06:04:55.191Z,16.20
2022-10-14T06:07:43.354Z,16.20
2022-10-14T06:10:38.180Z,16.20
2022-10-14T06:13:26.257Z,16.20
2022-10-14T06:16:23.096Z,16.10
2022-10-14T06:19:06.364Z,16.20
2022-10-14T06:22:02.122Z,16.20
2022-10-14T06:24:50.317Z,16.20
2022-10-14T06:27:38.084Z,16.20
2022-10-14T06:30:26.330Z,16.30
2022-10-14T06:33:14.104Z,16.40
2022-10-14T06:36:03.342Z,16.40
2022-10-14T06:38:51.084Z,16.30
2022-10-14T06:41:39.459Z,16.20
2022-10-14T06:44:27.187Z,16.30
2022-10-14T06:47:15.290Z,16.20
2022-10-14T06:49:56.119Z,16.30
2022-10-14T06:52:45.295Z,16.30
2022-10-14T06:55:27.186Z,16.30
2022-10-14T06:58:15.321Z,16.30
2022-10-14T07:03:44.279Z,16.40
2022-10-14T07:06:26.100Z,16.40
2022-10-14T07:09:22.148Z,16.30
2022-10-14T07:12:17.205Z,16.20
2022-10-14T07:15:05.355Z,16.30
2022-10-14T07:17:54.111Z,16.30
2022-10-14T07:20:42.145Z,16.30
2022-10-14T07:23:23.264Z,16.40
2022-10-14T07:26:13.106Z,16.40
2022-10-14T07:28:55.474Z,16.40
2022-10-14T07:31:50.104Z,16.50
2022-10-14T07:34:38.182Z,16.50
2022-10-14T07:37:26.390Z,16.60
2022-10-14T07:40:07.127Z,16.60
2022-10-14T07:42:56.351Z,16.60
2022-10-14T07:45:42.186Z,16.60
2022-10-14T07:48:32.612Z,16.70
2022-10-14T07:51:20.194Z,16.70
2022-10-14T07:54:10.510Z,16.60
2022-10-14T07:56:59.197Z,16.70
2022-10-14T07:59:48.154Z,16.70
2022-10-14T08:02:30.369Z,16.80
2022-10-14T08:05:37.206Z,16.90
2022-10-14T08:08:19.315Z,16.90
2022-10-14T08:11:15.288Z,16.90
2022-10-14T08:14:03.340Z,16.90
2022-10-14T08:16:53.249Z,17.20
2022-10-14T08:19:41.368Z,17.20
2022-10-14T08:22:29.223Z,17.30
2022-10-14T08:25:17.367Z,17.40
2022-10-14T08:28:05.172Z,17.30
2022-10-14T08:30:53.526Z,17.20
2022-10-14T08:33:43.319Z,17.30
2022-10-14T08:36:31.564Z,17.20
2022-10-14T08:39:19.179Z,17.20
2022-10-14T08:42:18.343Z,17.50
2022-10-14T08:45:09.257Z,17.70
2022-10-14T08:47:52.319Z,17.50
2022-10-14T08:50:44.147Z,17.20
2022-10-14T08:53:28.371Z,17.10
2022-10-14T08:56:18.157Z,17.40
2022-10-14T08:59:00.478Z,17.30
2022-10-14T09:01:59.194Z,17.20
2022-10-14T09:04:47.393Z,17.30
2022-10-14T09:07:37.253Z,17.20
2022-10-14T09:10:38.192Z,17.30
2022-10-14T09:13:37.256Z,17.40
2022-10-14T09:16:27.411Z,17.30
2022-10-14T09:19:16.180Z,17.50
2022-10-14T09:22:11.165Z,17.90
2022-10-14T09:24:54.078Z,17.70
2022-10-14T09:27:43.169Z,17.60
2022-10-14T09:30:38.194Z,17.60
2022-10-14T09:33:33.239Z,17.60
2022-10-14T09:36:23.455Z,17.70
2022-10-14T09:39:12.169Z,17.70
2022-10-14T09:42:02.367Z,17.80
2022-10-14T09:44:44.234Z,17.90
2022-10-14T09:47:32.403Z,18.10
2022-10-14T09:50:16.199Z,18.30
2022-10-14T09:53:10.821Z,18.20
2022-10-14T09:55:55.167Z,18.20
2022-10-14T09:58:50.979Z,18.20
2022-10-14T10:01:33.283Z,18.20
2022-10-14T10:04:32.417Z,18.10
2022-10-14T10:07:22.422Z,18.20
2022-10-14T10:10:19.270Z,17.90
2022-10-14T10:13:17.186Z,17.90
2022-10-14T10:16:07.407Z,18.00
2022-10-14T10:18:48.410Z,17.90
2022-10-14T10:21:43.211Z,17.70
2022-10-14T10:24:32.895Z,17.60
2022-10-14T10:27:33.181Z,17.70
2022-10-14T10:30:23.518Z,17.70
2022-10-14T10:33:17.177Z,17.80
2022-10-14T10:36:15.371Z,17.80
2022-10-14T10:39:11.179Z,17.70
2022-10-14T10:42:06.136Z,17.80
2022-10-14T10:45:05.265Z,17.70
2022-10-14T10:47:56.405Z,17.60
2022-10-14T10:50:45.343Z,17.50
2022-10-14T10:54:02.883Z,17.50
2022-10-14T10:56:55.254Z,17.40
2022-10-14T10:59:57.788Z,17.60
2022-10-14T11:03:05.242Z,17.60
2022-10-14T11:05:55.136Z,17.60
2022-10-14T11:09:06.272Z,17.70
2022-10-14T11:12:06.492Z,17.70
2022-10-14T11:15:15.373Z,17.60
2022-10-14T11:18:07.449Z,17.60
2022-10-14T11:20:54.366Z,17.80
2022-10-14T11:23:50.447Z,17.80
2022-10-14T11:26:48.271Z,17.80
2022-10-14T11:29:41.442Z,17.90
2022-10-14T11:32:34.193Z,18.00
2022-10-14T11:35:33.092Z,17.80
2022-10-14T11:38:45.250Z,17.70
2022-10-14T11:41:33.477Z,17.70
2022-10-14T11:44:25.261Z,18.00
2022-10-14T11:47:16.419Z,18.10
2022-10-14T11:50:02.250Z,18.10
2022-10-14T11:52:53.590Z,18.50
2022-10-14T11:55:37.220Z,18.30
2022-10-14T11:58:30.450Z,18.60
2022-10-14T12:01:13.221Z,18.80
2022-10-14T12:04:03.731Z,18.90
2022-10-14T12:06:52.329Z,18.80
2022-10-14T12:09:51.076Z,18.80
2022-10-14T12:12:49.207Z,18.70
2022-10-14T12:15:32.069Z,18.60
2022-10-14T12:18:20.242Z,18.70
2022-10-14T12:21:23.464Z,18.70
2022-10-14T12:24:14.292Z,18.80
2022-10-14T12:27:04.724Z,18.70
2022-10-14T12:29:48.272Z,18.90
2022-10-14T12:32:38.489Z,19.10
2022-10-14T12:35:50.229Z,19.10
2022-10-14T12:38:38.669Z,18.90
2022-10-14T12:41:40.267Z,18.80
2022-10-14T12:44:23.452Z,19.00
2022-10-14T12:47:22.969Z,19.10
2022-10-14T12:50:13.430Z,19.20
2022-10-14T12:53:09.252Z,19.00
2022-10-14T12:55:58.640Z,18.90
2022-10-14T12:58:49.313Z,19.20
2022-10-14T13:01:38.615Z,19.40
2022-10-14T13:04:24.267Z,19.50
2022-10-14T13:07:41.087Z,19.50
2022-10-14T13:11:03.288Z,19.70
2022-10-14T13:13:54.543Z,19.90
2022-10-14T13:17:01.292Z,19.90
2022-10-14T13:19:50.529Z,19.50
2022-10-14T13:26:58.269Z,19.40
2022-10-14T13:29:55.284Z,19.40
2022-10-14T13:32:41.485Z,19.20
2022-10-14T13:35:32.276Z,19.50
2022-10-14T13:38:15.538Z,19.70
2022-10-14T13:41:05.322Z,19.80
2022-10-14T13:43:49.442Z,19.90
2022-10-14T13:46:46.282Z,19.60
2022-10-14T13:49:31.816Z,19.30
2022-10-14T13:52:20.643Z,19.40
2022-10-14T13:55:15.073Z,19.60
2022-10-14T13:58:14.324Z,19.50
2022-10-14T14:01:09.454Z,19.40
2022-10-14T14:03:52.447Z,19.40
2022-10-14T14:07:03.092Z,19.50
2022-10-14T14:10:03.291Z,19.50
2022-10-14T14:12:58.306Z,19.50
2022-10-14T14:15:46.555Z,19.50
2022-10-14T14:18:56.193Z,19.20
2022-10-14T14:21:51.537Z,19.10
2022-10-14T14:24:36.346Z,19.30
2022-10-14T14:27:26.679Z,19.30
2022-10-14T14:30:08.342Z,19.10
2022-10-14T14:32:56.525Z,19.00
2022-10-14T14:35:39.402Z,19.10
2022-10-14T14:38:31.427Z,19.20
2022-10-14T14:41:14.326Z,19.20
2022-10-14T14:47:13.497Z,19.20
2022-10-14T14:50:11.685Z,19.20
2022-10-14T14:53:04.294Z,19.20
2022-10-14T14:55:54.452Z,19.00
2022-10-14T14:58:44.314Z,19.00
2022-10-14T15:01:34.590Z,18.90
2022-10-14T15:04:23.309Z,19.00
2022-10-14T15:07:15.278Z,19.20
2022-10-14T15:10:14.323Z,19.20
2022-10-14T15:13:03.541Z,18.90
2022-10-14T15:15:46.427Z,19.00
2022-10-14T15:18:37.616Z,19.20
2022-10-14T15:21:23.289Z,19.20
2022-10-14T15:24:11.526Z,19.00
2022-10-14T15:27:01.305Z,19.00
2022-10-14T15:29:49.369Z,18.80
2022-10-14T15:32:31.642Z,18.80
2022-10-14T15:35:20.418Z,18.80
2022-10-14T15:38:02.577Z,19.10
2022-10-14T15:40:51.288Z,19.00
2022-10-14T15:43:35.917Z,19.40
2022-10-14T15:46:41.398Z,19.30
2022-10-14T15:49:23.632Z,19.10
2022-10-14T15:52:20.414Z,18.90
2022-10-14T15:55:20.712Z,19.00
2022-10-14T15:58:08.323Z,19.10
2022-10-14T16:00:57.484Z,18.90
2022-10-14T16:03:45.374Z,18.70
2022-10-14T16:06:33.562Z,18.80
2022-10-14T16:09:14.363Z,19.00
2022-10-14T16:12:09.344Z,18.90
2022-10-14T16:14:57.401Z,18.80
2022-10-14T16:17:40.794Z,18.80
2022-10-14T16:20:29.350Z,18.70
2022-10-14T16:23:10.498Z,18.70
2022-10-14T16:25:59.502Z,18.60
2022-10-14T16:28:41.640Z,18.50
2022-10-14T16:31:31.428Z,18.50
2022-10-14T16:34:14.500Z,18.40
2022-10-14T16:37:09.413Z,18.30
2022-10-14T16:39:57.497Z,18.20
2022-10-14T16:42:45.313Z,18.10
2022-10-14T16:45:33.534Z,18.10
2022-10-14T16:48:22.335Z,17.90
2022-10-14T16:51:11.458Z,17.80
2022-10-14T16:53:52.552Z,17.90
2022-10-14T16:56:58.433Z,18.10
2022-10-14T16:59:47.338Z,18.10
2022-10-14T17:02:35.474Z,17.90
2022-10-14T17:05:24.353Z,17.80
2022-10-14T17:08:13.527Z,17.70
2022-10-14T17:11:01.359Z,17.60
2022-10-14T17:13:49.749Z,17.40
2022-10-14T17:16:31.398Z,17.30
2022-10-14T17:19:19.600Z,17.20
2022-10-14T17:22:01.317Z,17.30
2022-10-14T17:24:50.598Z,17.30
2022-10-14T17:27:31.408Z,17.30
2022-10-14T17:30:19.629Z,17.30
2022-10-14T17:33:00.420Z,17.20
2022-10-14T17:35:48.587Z,17.10
2022-10-14T17:38:29.383Z,17.20
2022-10-14T17:41:19.581Z,17.00
2022-10-14T17:44:14.426Z,17.00
2022-10-14T17:47:03.189Z,17.00
2022-10-14T17:49:50.463Z,17.10
2022-10-14T17:52:38.544Z,17.10
2022-10-14T17:55:26.392Z,17.10
2022-10-14T17:58:15.538Z,17.10
2022-10-14T18:01:03.473Z,17.00
2022-10-14T18:03:51.566Z,17.00
2022-10-14T18:06:34.377Z,17.10
2022-10-14T18:09:22.636Z,17.00
2022-10-14T18:12:17.387Z,17.00
2022-10-14T18:15:06.607Z,17.30
2022-10-14T18:17:47.433Z,17.70
2022-10-14T18:20:35.683Z,17.80
2022-10-14T18:23:18.392Z,18.10
2022-10-14T18:26:13.296Z,18.00
2022-10-14T18:29:03.481Z,17.90
2022-10-14T18:34:52.355Z,17.90
2022-10-14T18:37:34.212Z,17.80
2022-10-14T18:40:24.407Z,17.70
2022-10-14T18:43:12.589Z,17.70
2022-10-14T18:46:00.447Z,17.70
2022-10-14T18:48:49.602Z,17.80
2022-10-14T18:51:36.436Z,17.80
2022-10-14T18:54:25.918Z,17.50
2022-10-14T18:57:07.507Z,17.40
2022-10-14T18:59:57.758Z,17.50
2022-10-14T19:02:40.409Z,17.50
2022-10-14T19:05:32.988Z,17.60
2022-10-14T19:11:14.474Z,17.40
2022-10-14T19:14:14.089Z,17.10
2022-10-14T19:17:02.669Z,17.40
2022-10-14T19:19:51.386Z,17.50
2022-10-14T19:22:44.797Z,17.20
2022-10-14T19:25:32.452Z,16.90
2022-10-14T19:28:20.595Z,16.90
2022-10-14T19:31:08.414Z,17.00
2022-10-14T19:33:56.735Z,17.00
2022-10-14T19:36:39.425Z,17.00
2022-10-14T19:39:28.632Z,16.90
2022-10-14T19:42:10.473Z,17.10
2022-10-14T19:44:58.663Z,17.30
2022-10-14T19:47:40.398Z,17.20
2022-10-14T19:50:28.658Z,17.00
2022-10-14T19:53:09.491Z,17.20
2022-10-14T19:55:58.608Z,17.40
2022-10-14T19:58:54.422Z,17.40
2022-10-14T20:01:42.621Z,17.00
2022-10-14T20:04:30.480Z,16.90
2022-10-14T20:07:18.579Z,16.90
2022-10-14T20:10:06.447Z,16.60
2022-10-14T20:12:55.555Z,16.60
2022-10-14T20:15:43.468Z,16.50
2022-10-14T20:18:31.585Z,16.60
2022-10-14T20:21:20.467Z,16.60
2022-10-14T20:24:08.597Z,16.90
2022-10-14T20:26:50.465Z,16.80
2022-10-14T20:29:39.654Z,16.60
2022-10-14T20:32:20.416Z,16.50
2022-10-14T20:35:12.735Z,16.70
2022-10-14T20:37:55.433Z,17.00
2022-10-14T20:40:43.641Z,17.10
2022-10-14T20:43:24.418Z,17.10
2022-10-14T20:46:13.635Z,17.10
2022-10-14T20:49:01.426Z,17.00
2022-10-14T20:51:49.631Z,17.00
2022-10-14T20:54:44.439Z,17.10
2022-10-14T20:57:25.927Z,17.00
2022-10-14T21:00:13.528Z,16.80
2022-10-14T21:03:02.647Z,16.80
2022-10-14T21:05:50.433Z,16.60
2022-10-14T21:08:38.587Z,16.60
2022-10-14T21:11:27.542Z,16.50
2022-10-14T21:14:17.338Z,16.40
2022-10-14T21:16:58.512Z,16.50
2022-10-14T21:19:54.469Z,16.60
2022-10-14T21:22:42.569Z,16.60
2022-10-14T21:25:31.536Z,16.60
2022-10-14T21:28:19.957Z,16.60
2022-10-14T21:31:08.456Z,16.70
2022-10-14T21:34:05.709Z,16.60
2022-10-14T21:36:49.431Z,16.60
2022-10-14T21:39:37.573Z,16.60
2022-10-14T21:42:20.631Z,16.60
2022-10-14T21:45:08.699Z,16.70
2022-10-14T21:47:59.575Z,16.80
2022-10-14T21:50:40.682Z,16.90
2022-10-14T21:53:29.457Z,16.90
2022-10-14T21:56:11.682Z,17.00
2022-10-14T21:59:06.467Z,17.10
2022-10-14T22:01:47.957Z,17.00
2022-10-14T22:04:38.210Z,16.90
2022-10-14T22:07:26.595Z,16.80
2022-10-14T22:10:36.509Z,16.70
2022-10-14T22:13:25.597Z,16.50
2022-10-14T22:16:14.553Z,16.50
2022-10-14T22:19:02.733Z,16.50
2022-10-14T22:21:44.462Z,16.30
2022-10-14T22:24:32.577Z,16.40
2022-10-14T22:27:15.537Z,16.40
2022-10-14T22:30:04.029Z,16.80
2022-10-14T22:32:45.485Z,16.90
2022-10-14T22:35:33.671Z,16.90
2022-10-14T22:38:21.473Z,16.80
2022-10-14T22:41:02.735Z,16.70
2022-10-14T22:44:01.552Z,16.80
2022-10-14T22:46:49.683Z,16.70
2022-10-14T22:49:37.478Z,16.50
2022-10-14T22:52:25.941Z,16.50
2022-10-14T22:55:13.464Z,16.60
2022-10-14T22:58:01.727Z,16.70
2022-10-14T23:00:51.568Z,16.60
2022-10-14T23:03:39.691Z,16.70
2022-10-14T23:06:28.482Z,17.00
2022-10-14T23:09:16.699Z,16.90
2022-10-14T23:12:12.499Z,16.70
2022-10-14T23:15:00.688Z,16.90
2022-10-14T23:17:43.578Z,17.00
2022-10-14T23:20:31.702Z,16.90
2022-10-14T23:23:13.464Z,16.90
2022-10-14T23:26:01.653Z,16.90
2022-10-14T23:28:50.535Z,16.90
2022-10-14T23:31:33.542Z,17.10
2022-10-14T23:34:25.460Z,16.80
2022-10-14T23:37:13.723Z,16.70
2022-10-14T23:40:01.547Z,16.80
2022-10-14T23:42:49.624Z,16.50
2022-10-14T23:45:37.641Z,16.60
2022-10-14T23:48:25.740Z,16.50
2022-10-14T23:51:15.516Z,16.60
2022-10-14T23:54:03.733Z,16.80
2022-10-14T23:56:45.567Z,16.70
2022-10-14T23:59:33.647Z,16.70
